createdAt,value
2023-05-04T00:01:59.314Z,18.52
2023-05-04T00:04:25.723Z,18.52
2023-05-04T00:06:52.143Z,18.48
2023-05-04T00:09:18.493Z,18.45
2023-05-04T00:11:44.856Z,18.39
2023-05-04T00:14:11.186Z,18.32
2023-05-04T00:16:37.536Z,18.33
2023-05-04T00:19:03.960Z,18.31
2023-05-04T00:21:30.291Z,18.28
2023-05-04T00:23:56.608Z,18.23
2023-05-04T00:26:22.981Z,18.17
2023-05-04T00:28:49.672Z,18.13
2023-05-04T00:31:16.053Z,18.12
2023-05-04T00:33:42.476Z,18.06
2023-05-04T00:36:08.795Z,17.96
2023-05-04T00:38:35.099Z,17.92
2023-05-04T00:41:01.476Z,17.86
2023-05-04T00:43:27.882Z,17.85
2023-05-04T00:45:54.254Z,17.80
2023-05-04T00:48:20.605Z,17.78
2023-05-04T00:50:46.938Z,17.73
2023-05-04T00:53:13.496Z,17.68
2023-05-04T00:55:39.857Z,17.64
2023-05-04T00:58:06.197Z,17.59
2023-05-04T01:00:32.508Z,17.56
2023-05-04T01:02:59.500Z,17.52
2023-05-04T01:05:25.888Z,17.47
2023-05-04T01:07:52.257Z,17.46
2023-05-04T01:10:18.638Z,17.44
2023-05-04T01:12:45.012Z,17.46
2023-05-04T01:15:11.394Z,17.44
2023-05-04T01:17:37.808Z,17.41
2023-05-04T01:20:04.450Z,17.39
2023-05-04T01:22:31.018Z,17.33
2023-05-04T01:24:57.389Z,17.02
2023-05-04T01:27:23.730Z,17.21
2023-05-04T01:29:50.062Z,17.24
2023-05-04T01:32:16.413Z,17.24
2023-05-04T01:34:42.741Z,17.22
2023-05-04T01:37:09.049Z,17.17
2023-05-04T01:39:35.806Z,17.14
2023-05-04T01:42:02.114Z,17.12
2023-05-04T01:44:28.458Z,17.03
2023-05-04T01:46:54.812Z,16.99
2023-05-04T01:49:21.652Z,16.97
2023-05-04T01:51:49.486Z,16.93
2023-05-04T01:54:15.906Z,16.88
2023-05-04T01:56:42.213Z,16.85
2023-05-04T01:59:08.595Z,16.81
2023-05-04T02:01:34.978Z,16.81
2023-05-04T02:04:01.630Z,16.77
2023-05-04T02:06:28.069Z,16.73
2023-05-04T02:08:54.425Z,16.67
2023-05-04T02:11:20.762Z,16.61
2023-05-04T02:13:47.218Z,16.53
2023-05-04T02:16:13.649Z,16.49
2023-05-04T02:18:40.025Z,16.47
2023-05-04T02:21:06.401Z,16.47
2023-05-04T02:23:32.776Z,16.41
2023-05-04T02:25:59.078Z,16.36
2023-05-04T02:28:25.408Z,16.32
2023-05-04T02:30:51.800Z,16.29
2023-05-04T02:33:18.127Z,16.24
2023-05-04T02:35:44.462Z,16.22
2023-05-04T02:38:10.805Z,16.18
2023-05-04T02:40:39.354Z,16.14
2023-05-04T02:43:05.679Z,16.10
2023-05-04T02:45:34.314Z,16.07
2023-05-04T02:48:00.731Z,16.05
2023-05-04T02:50:27.076Z,16.03
2023-05-04T02:52:53.436Z,15.98
2023-05-04T02:55:19.902Z,15.95
2023-05-04T02:57:46.306Z,15.91
2023-05-04T03:00:12.681Z,15.87
2023-05-04T03:02:39.097Z,15.84
2023-05-04T03:05:05.630Z,15.79
2023-05-04T03:07:32.004Z,15.78
2023-05-04T03:09:58.381Z,15.71
2023-05-04T03:12:24.707Z,15.71
2023-05-04T03:14:51.116Z,15.67
2023-05-04T03:17:17.468Z,15.65
2023-05-04T03:19:43.834Z,15.61
2023-05-04T03:22:11.097Z,15.61
2023-05-04T03:24:37.435Z,15.58
2023-05-04T03:27:03.877Z,15.56
2023-05-04T03:29:30.360Z,15.54
2023-05-04T03:31:57.319Z,15.50
2023-05-04T03:34:23.702Z,15.44
2023-05-04T03:36:55.769Z,15.42
2023-05-04T03:39:22.189Z,15.40
2023-05-04T03:41:48.587Z,15.39
2023-05-04T03:44:15.142Z,15.38
2023-05-04T03:46:41.646Z,15.35
2023-05-04T03:49:08.194Z,15.31
2023-05-04T03:51:34.713Z,15.28
2023-05-04T03:54:01.107Z,15.28
2023-05-04T03:56:27.453Z,15.24
2023-05-04T03:58:53.929Z,15.22
2023-05-04T04:01:24.902Z,15.19
2023-05-04T04:03:51.374Z,15.20
2023-05-04T04:06:19.612Z,15.19
2023-05-04T04:08:46.053Z,15.18
2023-05-04T04:11:12.484Z,15.16
2023-05-04T04:13:39.018Z,14.98
2023-05-04T04:16:05.518Z,14.67
2023-05-04T04:18:31.877Z,14.43
2023-05-04T04:20:58.487Z,14.31
2023-05-04T04:23:25.057Z,14.38
2023-05-04T04:25:51.619Z,14.54
2023-05-04T04:28:18.233Z,14.69
2023-05-04T04:30:44.643Z,14.83
2023-05-04T04:33:11.178Z,14.95
2023-05-04T04:35:37.749Z,15.02
2023-05-04T04:38:04.389Z,15.15
2023-05-04T04:40:30.841Z,15.09
2023-05-04T04:42:57.375Z,14.98
2023-05-04T04:45:23.855Z,15.09
2023-05-04T04:47:50.329Z,15.18
2023-05-04T04:50:16.900Z,15.50
2023-05-04T04:52:43.331Z,15.71
2023-05-04T04:55:09.776Z,16.02
2023-05-04T04:57:36.292Z,16.33
2023-05-04T05:00:02.924Z,16.63
2023-05-04T05:02:29.435Z,16.58
2023-05-04T05:04:56.022Z,16.57
2023-05-04T05:07:22.515Z,16.77
2023-05-04T05:09:48.978Z,17.04
2023-05-04T05:12:16.077Z,17.36
2023-05-04T05:14:42.554Z,17.67
2023-05-04T05:17:08.971Z,18.22
2023-05-04T05:19:35.431Z,18.60
2023-05-04T05:22:01.952Z,18.93
2023-05-04T05:24:28.416Z,19.28
2023-05-04T05:26:55.004Z,19.58
2023-05-04T05:29:21.395Z,19.88
2023-05-04T05:31:47.829Z,20.18
2023-05-04T05:34:14.271Z,20.45
2023-05-04T05:36:40.701Z,20.60
2023-05-04T05:39:07.104Z,20.65
2023-05-04T05:41:33.598Z,20.88
2023-05-04T05:44:00.067Z,21.16
2023-05-04T05:46:26.517Z,21.44
2023-05-04T05:48:52.948Z,21.74
2023-05-04T05:51:19.318Z,22.03
2023-05-04T05:53:45.657Z,22.29
2023-05-04T05:56:12.058Z,22.51
2023-05-04T05:58:38.468Z,22.73
2023-05-04T06:01:04.829Z,22.99
2023-05-04T06:03:31.317Z,23.19
2023-05-04T06:05:57.803Z,23.37
2023-05-04T06:08:24.268Z,23.61
2023-05-04T06:10:50.782Z,23.82
2023-05-04T06:13:17.215Z,23.99
2023-05-04T06:15:43.597Z,24.20
2023-05-04T06:18:10.116Z,24.42
2023-05-04T06:20:36.525Z,24.68
2023-05-04T06:23:02.934Z,24.84
2023-05-04T06:25:29.314Z,25.02
2023-05-04T06:27:55.709Z,25.22
2023-05-04T06:30:22.068Z,25.33
2023-05-04T06:32:48.517Z,25.39
2023-05-04T06:35:14.932Z,25.56
2023-05-04T06:37:41.363Z,25.69
2023-05-04T06:40:07.836Z,25.81
2023-05-04T06:42:35.643Z,25.95
2023-05-04T06:45:02.018Z,25.88
2023-05-04T06:47:28.462Z,25.73
2023-05-04T06:49:54.849Z,25.50
2023-05-04T06:52:21.192Z,25.40
2023-05-04T06:54:47.618Z,25.39
2023-05-04T06:57:13.969Z,25.48
2023-05-04T06:59:40.310Z,25.41
2023-05-04T07:02:06.701Z,25.47
2023-05-04T07:04:33.122Z,25.48
2023-05-04T07:06:59.476Z,25.46
2023-05-04T07:09:25.893Z,25.59
2023-05-04T07:11:52.366Z,25.43
2023-05-04T07:14:18.724Z,25.23
2023-05-04T07:16:45.214Z,25.21
2023-05-04T07:19:11.634Z,25.28
2023-05-04T07:21:37.990Z,25.07
2023-05-04T07:24:04.427Z,25.11
2023-05-04T07:26:30.812Z,24.95
2023-05-04T07:28:57.169Z,24.98
2023-05-04T07:31:23.594Z,25.14
2023-05-04T07:33:49.957Z,25.27
2023-05-04T07:36:16.306Z,25.27
2023-05-04T07:38:42.724Z,25.15
2023-05-04T07:41:09.065Z,25.09
2023-05-04T07:43:35.410Z,25.10
2023-05-04T07:46:01.871Z,25.08
2023-05-04T07:48:28.274Z,25.12
2023-05-04T07:50:54.746Z,25.05
2023-05-04T07:53:21.216Z,24.90
2023-05-04T07:55:47.599Z,24.80
2023-05-04T07:58:13.982Z,24.82
2023-05-04T08:00:40.395Z,24.84
2023-05-04T08:03:06.824Z,24.86
2023-05-04T08:05:33.216Z,24.90
2023-05-04T08:07:59.638Z,25.11
2023-05-04T08:10:26.027Z,25.33
2023-05-04T08:12:52.590Z,25.48
2023-05-04T08:15:19.087Z,25.55
2023-05-04T08:17:45.625Z,25.64
2023-05-04T08:20:12.030Z,25.79
2023-05-04T08:22:38.510Z,25.97
2023-05-04T08:25:05.151Z,26.09
2023-05-04T08:27:31.688Z,26.16
2023-05-04T08:29:58.148Z,26.15
2023-05-04T08:32:24.551Z,26.30
2023-05-04T08:34:50.924Z,26.53
2023-05-04T08:37:17.333Z,26.68
2023-05-04T08:39:43.686Z,26.72
2023-05-04T08:42:10.102Z,26.76
2023-05-04T08:44:36.513Z,26.55
2023-05-04T08:47:02.882Z,26.85
2023-05-04T08:49:29.258Z,26.77
2023-05-04T08:51:55.707Z,26.52
2023-05-04T08:54:22.085Z,26.54
2023-05-04T08:56:48.457Z,26.67
2023-05-04T08:59:14.870Z,26.82
2023-05-04T09:01:41.278Z,26.93
2023-05-04T09:04:07.704Z,27.00
2023-05-04T09:06:34.123Z,26.74
2023-05-04T09:09:00.474Z,26.97
2023-05-04T09:11:26.839Z,26.82
2023-05-04T09:13:53.250Z,26.89
2023-05-04T09:16:19.657Z,26.96
2023-05-04T09:18:45.997Z,26.96
2023-05-04T09:21:12.439Z,26.94
2023-05-04T09:23:38.885Z,26.99
2023-05-04T09:26:05.398Z,27.07
2023-05-04T09:28:31.816Z,27.18
2023-05-04T09:30:58.213Z,27.40
2023-05-04T09:33:24.645Z,27.65
2023-05-04T09:35:51.022Z,27.72
2023-05-04T09:38:17.369Z,27.70
2023-05-04T09:40:43.728Z,27.54
2023-05-04T09:43:10.137Z,27.44
2023-05-04T09:45:36.510Z,27.12
2023-05-04T09:48:02.924Z,27.05
2023-05-04T09:50:29.484Z,27.18
2023-05-04T09:52:55.944Z,27.35
2023-05-04T09:55:22.360Z,27.17
2023-05-04T09:57:48.776Z,27.18
2023-05-04T10:00:15.155Z,27.20
2023-05-04T10:02:41.593Z,27.23
2023-05-04T10:05:08.179Z,27.38
2023-05-04T10:07:34.776Z,27.48
2023-05-04T10:10:01.205Z,27.51
2023-05-04T10:12:27.776Z,27.76
2023-05-04T10:14:54.180Z,27.72
2023-05-04T10:17:20.530Z,27.85
2023-05-04T10:19:47.073Z,27.90
2023-05-04T10:22:13.455Z,27.74
2023-05-04T10:24:39.787Z,27.72
2023-05-04T10:27:06.288Z,27.67
2023-05-04T10:29:32.668Z,27.80
2023-05-04T10:31:59.139Z,27.94
2023-05-04T10:34:25.641Z,27.97
2023-05-04T10:36:51.987Z,28.01
2023-05-04T10:39:18.319Z,28.03
2023-05-04T10:41:44.807Z,27.81
2023-05-04T10:44:11.176Z,27.71
2023-05-04T10:46:37.564Z,27.58
2023-05-04T10:49:04.052Z,27.49
2023-05-04T10:51:38.776Z,27.17
2023-05-04T10:54:05.477Z,27.00
2023-05-04T10:56:31.828Z,26.94
2023-05-04T10:58:58.191Z,26.87
2023-05-04T11:01:24.777Z,26.73
2023-05-04T11:03:51.132Z,26.67
2023-05-04T11:06:17.554Z,26.71
2023-05-04T11:08:44.054Z,26.78
2023-05-04T11:11:10.432Z,26.91
2023-05-04T11:13:36.795Z,26.94
2023-05-04T11:16:03.234Z,26.76
2023-05-04T11:18:29.629Z,26.70
2023-05-04T11:20:56.004Z,26.54
2023-05-04T11:23:22.395Z,26.32
2023-05-04T11:25:48.770Z,26.39
2023-05-04T11:28:15.160Z,26.48
2023-05-04T11:30:41.588Z,26.68
2023-05-04T11:33:08.034Z,26.78
2023-05-04T11:35:34.508Z,26.86
2023-05-04T11:38:00.932Z,26.94
2023-05-04T11:40:27.307Z,26.98
2023-05-04T11:42:55.396Z,26.98
2023-05-04T11:45:23.174Z,26.97
2023-05-04T11:47:49.596Z,27.11
2023-05-04T11:50:16.032Z,27.19
2023-05-04T11:52:42.477Z,26.92
2023-05-04T11:55:09.243Z,26.96
2023-05-04T11:57:35.703Z,26.97
2023-05-04T12:00:02.166Z,27.17
2023-05-04T12:02:30.956Z,27.24
2023-05-04T12:04:57.319Z,27.31
2023-05-04T12:07:23.715Z,27.35
2023-05-04T12:09:50.111Z,27.37
2023-05-04T12:12:16.481Z,27.36
2023-05-04T12:14:42.881Z,27.30
2023-05-04T12:17:09.236Z,27.41
2023-05-04T12:19:35.618Z,27.37
2023-05-04T12:22:02.018Z,27.41
2023-05-04T12:24:28.388Z,27.32
2023-05-04T12:26:54.771Z,27.32
2023-05-04T12:29:21.712Z,27.34
2023-05-04T12:31:48.178Z,27.22
2023-05-04T12:34:14.591Z,27.00
2023-05-04T12:36:40.981Z,27.00
2023-05-04T12:39:07.334Z,26.87
2023-05-04T12:41:33.791Z,26.90
2023-05-04T12:44:00.191Z,26.87
2023-05-04T12:46:26.597Z,26.48
2023-05-04T12:48:53.003Z,26.13
2023-05-04T12:51:19.462Z,26.14
2023-05-04T12:53:45.808Z,26.21
2023-05-04T12:56:12.162Z,26.28
2023-05-04T12:58:38.552Z,26.29
2023-05-04T13:01:04.922Z,26.35
2023-05-04T13:03:31.410Z,26.39
2023-05-04T13:05:57.933Z,26.13
2023-05-04T13:08:24.315Z,26.33
2023-05-04T13:10:50.683Z,26.40
2023-05-04T13:13:17.191Z,26.42
2023-05-04T13:15:43.644Z,26.43
2023-05-04T13:18:10.014Z,26.38
2023-05-04T13:20:36.548Z,26.45
2023-05-04T13:23:02.909Z,26.56
2023-05-04T13:25:29.315Z,26.57
2023-05-04T13:27:55.768Z,26.56
2023-05-04T13:30:22.142Z,26.42
2023-05-04T13:32:48.664Z,26.45
2023-05-04T13:35:15.167Z,26.56
2023-05-04T13:37:41.523Z,26.62
2023-05-04T13:40:07.878Z,26.64
2023-05-04T13:42:36.911Z,26.70
2023-05-04T13:45:03.797Z,26.83
2023-05-04T13:47:30.306Z,26.91
2023-05-04T13:49:56.681Z,26.91
2023-05-04T13:52:22.991Z,26.99
2023-05-04T13:54:49.313Z,26.94
2023-05-04T13:57:15.688Z,26.97
2023-05-04T13:59:46.511Z,26.78
2023-05-04T14:02:21.266Z,26.64
2023-05-04T14:04:47.695Z,27.05
2023-05-04T14:07:14.032Z,27.08
2023-05-04T14:09:40.391Z,27.17
2023-05-04T14:12:06.712Z,27.10
2023-05-04T14:14:33.061Z,27.15
2023-05-04T14:16:59.435Z,27.23
2023-05-04T14:19:25.915Z,27.45
2023-05-04T14:21:52.303Z,27.45
2023-05-04T14:24:18.762Z,27.46
2023-05-04T14:26:45.220Z,27.37
2023-05-04T14:29:11.584Z,27.40
2023-05-04T14:31:37.962Z,27.45
2023-05-04T14:34:04.304Z,27.51
2023-05-04T14:36:30.602Z,27.53
2023-05-04T14:38:57.030Z,27.60
2023-05-04T14:41:23.372Z,27.62
2023-05-04T14:43:49.680Z,27.68
2023-05-04T14:46:16.092Z,27.68
2023-05-04T14:48:42.498Z,27.72
2023-05-04T14:51:08.867Z,27.74
2023-05-04T14:53:37.078Z,27.69
2023-05-04T14:56:04.980Z,27.33
2023-05-04T14:58:31.289Z,27.76
2023-05-04T15:00:57.648Z,27.78
2023-05-04T15:03:24.069Z,27.31
2023-05-04T15:05:50.443Z,27.59
2023-05-04T15:08:16.799Z,27.61
2023-05-04T15:10:43.146Z,27.66
2023-05-04T15:13:09.575Z,27.78
2023-05-04T15:15:36.001Z,27.72
2023-05-04T15:18:02.385Z,27.54
2023-05-04T15:20:28.761Z,27.86
2023-05-04T15:22:55.138Z,27.61
2023-05-04T15:25:21.496Z,27.64
2023-05-04T15:27:47.808Z,27.67
2023-05-04T15:30:14.321Z,27.73
2023-05-04T15:32:40.706Z,27.79
2023-05-04T15:35:07.141Z,27.74
2023-05-04T15:37:33.706Z,27.70
2023-05-04T15:40:02.284Z,27.78
2023-05-04T15:42:29.053Z,27.82
2023-05-04T15:44:55.484Z,27.79
2023-05-04T15:47:21.823Z,27.60
2023-05-04T15:49:48.151Z,27.67
2023-05-04T15:52:14.600Z,27.65
2023-05-04T15:54:40.922Z,27.65
2023-05-04T15:57:07.243Z,27.66
2023-05-04T15:59:33.605Z,28.04
2023-05-04T16:01:59.916Z,28.19
2023-05-04T16:04:26.231Z,28.10
2023-05-04T16:06:52.593Z,28.08
2023-05-04T16:09:18.977Z,27.82
2023-05-04T16:11:45.312Z,27.77
2023-05-04T16:14:11.671Z,27.99
2023-05-04T16:16:38.027Z,27.97
2023-05-04T16:19:04.349Z,28.03
2023-05-04T16:21:30.777Z,27.95
2023-05-04T16:23:57.171Z,28.11
2023-05-04T16:26:23.487Z,28.21
2023-05-04T16:28:49.857Z,28.11
2023-05-04T16:31:16.229Z,28.05
2023-05-04T16:33:42.612Z,28.06
2023-05-04T16:36:08.968Z,28.01
2023-05-04T16:38:35.293Z,27.99
2023-05-04T16:41:01.604Z,27.98
2023-05-04T16:43:27.980Z,28.22
2023-05-04T16:45:54.357Z,28.13
2023-05-04T16:48:20.699Z,28.14
2023-05-04T16:50:47.075Z,28.11
2023-05-04T16:53:13.385Z,28.10
2023-05-04T16:55:39.691Z,28.08
2023-05-04T16:58:06.065Z,28.06
2023-05-04T17:00:32.370Z,28.05
2023-05-04T17:02:58.743Z,28.13
2023-05-04T17:05:25.246Z,28.19
2023-05-04T17:07:51.554Z,27.98
2023-05-04T17:10:17.900Z,27.96
2023-05-04T17:12:44.441Z,27.94
2023-05-04T17:15:10.808Z,27.93
2023-05-04T17:17:37.151Z,27.97
2023-05-04T17:20:03.573Z,28.03
2023-05-04T17:22:29.940Z,27.95
2023-05-04T17:24:56.246Z,28.01
2023-05-04T17:27:22.622Z,27.98
2023-05-04T17:29:48.955Z,27.94
2023-05-04T17:32:15.416Z,27.85
2023-05-04T17:34:41.800Z,27.78
2023-05-04T17:37:08.121Z,27.73
2023-05-04T17:39:34.591Z,27.75
2023-05-04T17:42:01.006Z,27.75
2023-05-04T17:44:27.321Z,27.69
2023-05-04T17:46:53.635Z,27.67
2023-05-04T17:49:20.024Z,27.60
2023-05-04T17:51:46.328Z,27.57
2023-05-04T17:54:12.657Z,27.60
2023-05-04T17:56:39.022Z,27.56
2023-05-04T17:59:05.334Z,27.54
2023-05-04T18:01:31.664Z,27.51
2023-05-04T18:03:58.162Z,27.43
2023-05-04T18:06:24.506Z,27.43
2023-05-04T18:08:50.838Z,27.50
2023-05-04T18:11:17.313Z,27.40
2023-05-04T18:13:43.653Z,27.39
2023-05-04T18:16:09.993Z,27.36
2023-05-04T18:18:36.409Z,27.27
2023-05-04T18:21:02.719Z,27.20
2023-05-04T18:23:29.033Z,27.20
2023-05-04T18:25:55.404Z,27.21
2023-05-04T18:28:21.729Z,27.26
2023-05-04T18:30:48.130Z,27.15
2023-05-04T18:33:14.503Z,27.06
2023-05-04T18:35:40.817Z,27.09
2023-05-04T18:38:07.156Z,27.04
2023-05-04T18:40:33.535Z,26.89
2023-05-04T18:42:59.892Z,26.84
2023-05-04T18:45:26.261Z,26.95
2023-05-04T18:47:52.652Z,26.93
2023-05-04T18:50:18.991Z,26.94
2023-05-04T18:52:45.307Z,26.85
2023-05-04T18:55:11.710Z,26.81
2023-05-04T18:57:38.077Z,26.79
2023-05-04T19:00:04.450Z,26.59
2023-05-04T19:02:30.921Z,26.49
2023-05-04T19:04:57.264Z,26.47
2023-05-04T19:07:23.598Z,26.54
2023-05-04T19:09:49.991Z,26.42
2023-05-04T19:12:16.306Z,26.31
2023-05-04T19:14:42.629Z,26.24
2023-05-04T19:17:09.054Z,26.19
2023-05-04T19:19:35.412Z,26.33
2023-05-04T19:22:01.721Z,26.24
2023-05-04T19:24:28.208Z,26.10
2023-05-04T19:26:54.491Z,26.21
2023-05-04T19:29:20.827Z,26.16
2023-05-04T19:31:47.343Z,25.99
2023-05-04T19:34:15.554Z,25.93
2023-05-04T19:36:43.212Z,25.85
2023-05-04T19:39:09.566Z,25.97
2023-05-04T19:41:35.898Z,25.79
2023-05-04T19:44:02.270Z,25.86
2023-05-04T19:46:28.694Z,25.87
2023-05-04T19:48:55.025Z,25.79
2023-05-04T19:51:21.407Z,25.71
2023-05-04T19:53:47.866Z,25.78
2023-05-04T19:56:14.188Z,25.74
2023-05-04T19:58:40.511Z,25.42
2023-05-04T20:01:06.908Z,25.36
2023-05-04T20:03:33.266Z,25.35
2023-05-04T20:05:59.601Z,25.53
2023-05-04T20:08:25.982Z,25.43
2023-05-04T20:10:52.335Z,25.31
2023-05-04T20:13:18.670Z,25.27
2023-05-04T20:15:45.076Z,25.20
2023-05-04T20:18:11.405Z,25.14
2023-05-04T20:20:37.712Z,25.17
2023-05-04T20:23:04.081Z,25.15
2023-05-04T20:25:30.418Z,25.11
2023-05-04T20:27:56.743Z,25.08
2023-05-04T20:30:23.114Z,24.90
2023-05-04T20:32:49.489Z,24.86
2023-05-04T20:35:15.812Z,24.78
2023-05-04T20:37:42.196Z,24.73
2023-05-04T20:40:08.638Z,24.67
2023-05-04T20:42:35.124Z,24.69
2023-05-04T20:45:01.589Z,24.62
2023-05-04T20:47:27.973Z,24.56
2023-05-04T20:49:54.328Z,24.51
2023-05-04T20:52:20.697Z,24.58
2023-05-04T20:54:47.014Z,24.45
2023-05-04T20:57:13.445Z,24.45
2023-05-04T20:59:39.885Z,24.36
2023-05-04T21:02:06.208Z,24.28
2023-05-04T21:04:32.529Z,24.21
2023-05-04T21:06:59.105Z,24.14
2023-05-04T21:09:25.524Z,24.09
2023-05-04T21:11:51.945Z,24.02
2023-05-04T21:14:18.347Z,23.94
2023-05-04T21:16:44.664Z,23.83
2023-05-04T21:19:11.022Z,23.64
2023-05-04T21:21:37.410Z,23.74
2023-05-04T21:24:03.715Z,23.69
2023-05-04T21:26:30.055Z,23.64
2023-05-04T21:28:56.602Z,23.53
2023-05-04T21:31:23.061Z,23.50
2023-05-04T21:33:49.408Z,23.38
2023-05-04T21:36:15.773Z,23.31
2023-05-04T21:38:42.104Z,23.20
2023-05-04T21:41:08.476Z,23.17
2023-05-04T21:43:34.852Z,23.16
2023-05-04T21:46:01.183Z,23.09
2023-05-04T21:48:27.494Z,22.60
2023-05-04T21:50:53.865Z,22.79
2023-05-04T21:53:20.190Z,22.91
2023-05-04T21:55:46.543Z,22.87
2023-05-04T21:58:12.923Z,22.85
2023-05-04T22:00:39.251Z,22.80
2023-05-04T22:03:05.788Z,22.60
2023-05-04T22:05:32.306Z,22.71
2023-05-04T22:07:58.625Z,22.68
2023-05-04T22:10:24.963Z,22.63
2023-05-04T22:12:51.344Z,22.60
2023-05-04T22:15:17.684Z,22.56
2023-05-04T22:17:44.064Z,22.49
2023-05-04T22:20:10.534Z,22.45
2023-05-04T22:22:36.888Z,22.40
2023-05-04T22:25:03.312Z,22.32
2023-05-04T22:27:29.736Z,22.29
2023-05-04T22:29:56.134Z,22.23
2023-05-04T22:32:22.538Z,22.13
2023-05-04T22:34:48.918Z,22.04
2023-05-04T22:37:15.242Z,21.98
2023-05-04T22:39:41.550Z,21.99
2023-05-04T22:42:07.926Z,21.96
2023-05-04T22:44:34.239Z,22.12
2023-05-04T22:47:00.591Z,21.81
2023-05-04T22:49:26.964Z,21.88
2023-05-04T22:51:53.308Z,21.93
2023-05-04T22:54:19.625Z,21.91
2023-05-04T22:56:46.206Z,21.67
2023-05-04T22:59:12.567Z,21.61
2023-05-04T23:01:38.916Z,21.56
2023-05-04T23:04:05.289Z,21.51
2023-05-04T23:06:31.602Z,21.45
2023-05-04T23:08:57.968Z,21.38
2023-05-04T23:11:24.400Z,21.52
2023-05-04T23:13:50.734Z,21.30
2023-05-04T23:16:17.075Z,21.23
2023-05-04T23:18:43.445Z,21.18
2023-05-04T23:21:09.763Z,21.10
2023-05-04T23:23:36.104Z,21.05
2023-05-04T23:26:02.467Z,21.03
2023-05-04T23:28:28.788Z,20.98
2023-05-04T23:30:55.099Z,20.94
2023-05-04T23:33:21.456Z,20.89
2023-05-04T23:35:47.767Z,20.85
2023-05-04T23:38:14.084Z,21.06
2023-05-04T23:40:40.425Z,20.88
2023-05-04T23:43:06.743Z,20.75
2023-05-04T23:45:33.091Z,20.53
2023-05-04T23:47:59.556Z,20.58
2023-05-04T23:50:25.944Z,20.56
2023-05-04T23:52:52.279Z,20.50
2023-05-04T23:55:18.652Z,20.45
2023-05-04T23:57:44.947Z,20.41
